EDT,Max TemperatureF,Mean TemperatureF,Min TemperatureF,Max Dew PointF,MeanDew PointF,Min DewpointF,Max Humidity, Mean Humidity, Min Humidity, Max Sea Level PressureIn, Mean Sea Level PressureIn, Min Sea Level PressureIn, Max VisibilityMiles, Mean VisibilityMiles, Min VisibilityMiles, Max Wind SpeedMPH, Mean Wind SpeedMPH, Max Gust SpeedMPH,PrecipitationIn, CloudCover, Events, WindDirDegrees
2013-7-1,82,78,73,77,75,73,100,96,79,30.02,29.89,29.82,10,10,3,9,4,,0.06,7,Rain,164
2013-7-2,85,78,71,78,75,72,100,98,73,30.14,30.05,29.99,10,9,1,13,4,22,1.04,6,Rain-Thunderstorm,151
2013-7-3,87,78,71,81,77,72,100,92,74,30.17,30.13,30.10,10,9,2,13,4,22,0.17,5,Rain-Thunderstorm,129
2013-7-4,86,80,75,79,77,75,100,87,72,30.18,30.16,30.14,10,10,9,17,7,24,0.01,3,Rain,126
2013-7-5,88,80,72,79,77,72,100,87,68,30.20,30.17,30.13,10,10,5,18,6,25,0.06,3,Rain,134
2013-7-6,86,79,72,80,76,73,100,94,74,30.19,30.15,30.11,10,9,2,15,4,22,0.24,5,Rain,116
2013-7-7,88,80,71,79,75,72,100,87,65,30.18,30.15,30.11,10,10,2,13,3,20,0.00,2,Rain,138
2013-7-8,88,79,70,78,74,71,100,85,64,30.20,30.17,30.13,10,10,5,10,2,,0.00,1,,132
2013-7-9,90,80,71,78,74,71,100,84,64,30.20,30.15,30.10,10,10,10,10,3,,0.00,1,,121
2013-7-10,90,80,71,77,75,71,100,86,56,30.12,30.06,29.98,10,10,9,15,3,,0.00,2,Rain,168
2013-7-11,91,80,71,78,74,72,100,90,60,30.02,29.94,29.87,10,8,2,22,5,30,0.72,5,Rain-Thunderstorm,216
2013-7-12,80,76,73,78,76,73,100,97,88,29.94,29.92,29.88,10,10,7,10,3,,0.13,6,Rain,125
2013-7-13,82,76,71,78,74,72,100,98,79,30.04,29.98,29.92,10,6,0,16,3,,3.53,6,Fog-Rain-Thunderstorm,56
2013-7-14,82,78,73,81,77,73,100,95,79,30.15,30.12,30.03,10,9,2,16,5,26,0.35,6,Rain,80
2013-7-15,87,79,72,81,76,73,100,94,74,30.23,30.18,30.15,10,9,2,16,5,22,0.10,5,Rain,59
2013-7-16,89,81,73,81,76,73,100,88,65,30.26,30.23,30.20,10,10,9,13,4,18,0.00,2,Rain,50
2013-7-17,91,81,71,80,75,71,100,79,62,30.25,30.19,30.12,10,9,1,9,1,,0.01,2,Thunderstorm,100
2013-7-18,90,80,70,75,73,70,100,84,54,30.17,30.13,30.06,10,10,10,8,1,,0.00,2,,113
2013-7-19,88,79,71,77,75,71,100,92,61,30.13,30.09,30.03,10,9,2,10,2,,0.12,6,Rain-Thunderstorm,172
2013-7-20,85,78,72,79,75,72,100,91,74,30.10,30.06,29.99,10,10,2,21,3,33,0.18,6,Rain,181
2013-7-21,82,76,71,80,76,72,100,97,84,30.09,30.05,29.98,10,9,0,17,4,22,0.57,6,Fog-Rain,233
2013-7-22,89,80,73,79,76,73,100,90,70,30.07,30.02,29.98,10,9,0,30,7,40,0.51,3,Fog-Rain-Thunderstorm,227
2013-7-23,90,82,75,78,75,72,100,86,68,29.99,29.94,29.86,10,10,10,16,9,21,0.00,6,,249
2013-7-24,85,79,73,77,74,72,100,93,76,29.88,29.84,29.80,10,10,5,13,6,17,0.00,7,Rain,257
2013-7-25,89,80,70,80,74,70,100,89,70,29.97,29.90,29.81,10,10,6,10,3,,0.00,5,Thunderstorm,271
2013-7-26,89,80,71,81,76,71,100,89,70,30.05,30.01,29.97,10,10,10,10,2,,0.00,2,,91
2013-7-27,89,81,74,79,76,73,100,92,68,30.03,29.97,29.91,10,10,8,10,1,,0.06,4,Rain-Thunderstorm,146
2013-7-28,89,80,72,78,76,73,100,89,63,30.04,29.98,29.94,10,10,10,6,1,,0.00,5,,167
2013-7-29,91,82,73,80,76,74,100,90,64,30.17,30.10,30.02,10,9,2,12,2,17,0.37,4,Rain-Thunderstorm,168
2013-7-30,92,82,73,81,76,73,100,91,68,30.18,30.14,30.08,10,10,9,10,1,,0.02,4,Rain,84
2013-7-31,90,80,72,78,74,72,100,94,72,30.13,30.07,30.02,10,7,1,14,3,24,1.00,7,Rain-Thunderstorm,194